Aviation Digital Data Service (ADDS)

Output produced by METARs form (1857 UTC 02 September 2014)
found at http://www.aviationweather.gov/adds/metars/
 
KIPT 021854Z 23006KT 10SM SCT045 31/18 A2985 RMK AO2 SLP102 T03060183
KIPT 021754Z 22010KT 10SM BKN045 31/18 A2988 RMK AO2 SLP112 60000 T03110183 10311 20211 56020
KIPT 021654Z 25010KT 10SM SCT040 SCT070 30/19 A2988 RMK AO2 SLP115 T03000189
KIPT 021554Z COR 26004KT 10SM SCT040 SCT070 29/21 A2992 RMK AO2 RAB34E39 SLP127 P0000 T02940206
KIPT 021454Z VRB03KT 10SM FEW075 27/21 A2994 RMK AO2 RAB18E47 SLP133 P0000 60000 T02720211 57003
KIPT 021354Z 00000KT 10SM FEW075 24/21 A2994 RMK AO2 SLP132 T02440211
KIPT 021335Z 12003KT 10SM SCT003 SCT080 23/21 A2994 RMK AO2 T02280206
KIPT 021313Z 00000KT 7SM OVC002 22/21 A2994 RMK AO2 T02170206
KIPT 021303Z 00000KT 2SM BR OVC002 21/21 A2994 RMK AO2 T02110206
KIPT 021254Z 17003KT 1/2SM FG OVC002 21/21 A2995 RMK AO2 SLP137 T02110206
KIPT 021245Z 14003KT 1/4SM FG VV002 21/21 A2994 RMK AO2 T02110206
KIPT 021230Z 00000KT 1/2SM FG VV002 21/20 A2994 RMK AO2 T02110200
KIPT 021154Z 08004KT M1/4SM FG VV002 21/20 A2994 RMK AO2 SLP135 T02110200 10217 20206 53014
KIPT 021054Z 00000KT 1/4SM FG VV002 21/19 A2993 RMK AO2 SLP131 T02060194
KIPT 021028Z 36003KT 1/2SM FG OVC002 21/19 A2991 RMK AO2 T02060194
KIPT 021020Z AUTO 00000KT 1 1/2SM BR OVC002 21/19 A2991 RMK AO2 T02060194
KIPT 021014Z AUTO 00000KT 3SM BR OVC002 21/20 A2991 RMK AO2 T02110200
KIPT 021010Z AUTO 00000KT 1 3/4SM BR OVC002 21/20 A2991 RMK AO2 T02110200
KIPT 021000Z AUTO 00000KT 2SM BR OVC002 21/20 A2991 RMK AO2 T02110200
KIPT 020954Z AUTO 04003KT 1/2SM FG VV002 21/20 A2991 RMK AO2 SLP122 T02110200
KIPT 020854Z AUTO 00000KT 1/4SM FG VV002 21/20 A2990 RMK AO2 SLP120 T02110200 58005
KIPT 020815Z AUTO 00000KT 1/4SM FG VV002 21/20 A2991 RMK AO2 T02110200
KIPT 020807Z AUTO 00000KT 1/2SM FG VV002 21/19 A2991 RMK AO2 T02110194
KIPT 020754Z AUTO 00000KT 1 3/4SM BR OVC002 21/20 A2991 RMK AO2 SLP125 T02110200
KIPT 020749Z AUTO 00000KT 1SM BR OVC002 21/19 A2991 RMK AO2
KIPT 020738Z AUTO 00000KT 1/4SM FG OVC002 21/20 A2991 RMK AO2 T02110200
KIPT 020731Z AUTO 00000KT 1 3/4SM BR OVC002 21/20 A2991 RMK AO2 T02110200
KIPT 020654Z AUTO 00000KT 6SM BR OVC002 21/19 A2991 RMK AO2 SLP124 T02110194
KIPT 020554Z AUTO 00000KT 4SM BR OVC003 21/20 A2991 RMK AO2 SLP124 T02110200 10261 20211 58008
KIPT 020524Z AUTO 00000KT 5SM BR BKN003 22/20 A2992 RMK AO2 T02170200
KIPT 020454Z AUTO 01004KT 6SM BR FEW005 22/20 A2992 RMK AO2 SLP130 T02170200 402830200
KIPT 020447Z AUTO 00000KT 5SM BR CLR 22/20 A2992 RMK AO2 T02170200
KIPT 020438Z AUTO 00000KT 2 1/2SM BR CLR 22/20 A2992 RMK AO2 T02170200
KIPT 020354Z AUTO 00000KT 7SM CLR 22/21 A2994 RMK AO2 SLP134 T02220206
KIPT 020254Z AUTO 00000KT 8SM FEW050 23/21 A2994 RMK AO2 SLP134 T02280206 50006
KIPT 020154Z 00000KT 9SM FEW060 SCT090 OVC110 24/21 A2994 RMK AO2 SLP136 T02390211
KIPT 020054Z 00000KT 10SM BKN043 25/21 A2993 RMK AO2 SLP130 T02500211
KIPT 012354Z 00000KT 10SM BKN042 26/21 A2992 RMK AO2 SLP128 T02610206 10283 20256 55003
KIPT 012254Z 00000KT 10SM CLR 27/21 A2990 RMK AO2 SLP123 T02720211
KIPT 012154Z 14004KT 10SM BKN070 28/21 A2992 RMK AO2 SLP126 T02780211
KIPT 012054Z 00000KT 10SM SCT060 SCT085 28/21 A2993 RMK AO2 SLP130 T02830206 56011
KIPT 011954Z 26005KT 10SM SCT050 BKN070 27/21 A2994 RMK AO2 SLP135 T02720206
KIPT 011854Z 19004KT 10SM BKN041 OVC055 27/21 A2995 RMK AO2 SLP138 T02720206
KIPT 011754Z 13005KT 10SM SCT075 BKN090 28/21 A2996 RMK AO2 SLP141 T02830211 10283 20206 58012
KIPT 011654Z 11005KT 10SM FEW035 SCT044 BKN065 26/21 A2998 RMK AO2 SLP149 T02610211
KIPT 011554Z 13004KT 10SM SCT044 24/21 A2999 RMK AO2 SLP153 T02440206
KIPT 011454Z 10004KT 10SM SCT007 BKN055 24/21 A3000 RMK AO2 SLP155 T02390206 58006
KIPT 011427Z 00000KT 10SM SCT007 BKN055 23/20 A3000 RMK AO2 T02280200
KIPT 011354Z 00000KT 3SM BR OVC006 22/20 A3001 RMK AO2 SLP159 T02220200
KIPT 011337Z 00000KT 3SM HZ BKN006 OVC021 22/19 A3001 RMK AO2 T02220194
KIPT 011313Z 00000KT 3SM BR BKN005 OVC026 22/19 A3001 RMK AO2 T02170194
KIPT 011254Z 00000KT 2 1/2SM BR OVC006 21/19 A3000 RMK AO2 SLP157 T02110194
KIPT 011232Z 00000KT 2 1/2SM BR OVC005 21/19 A3001 RMK AO2 T02110194
KIPT 011219Z 00000KT 2SM BR OVC004 21/19 A3001 RMK AO2 T02060194
KIPT 011154Z 12003KT 1SM BR OVC003 21/19 A3002 RMK AO2 SLP161 60000 70029 T02060189 10206 20200 50005
KIPT 011054Z 00000KT 1SM BR OVC002 21/19 A3002 RMK AO2 RAB18E41 SLP162 P0000 T02060194
KIPT 011029Z 00000KT 1SM -RA BR OVC002 21/19 A3002 RMK AO2 RAB18 P0000 T02060194
KIPT 011023Z 00000KT 3/4SM -RA BR VV003 21/19 A3001 RMK AO2 RAB18 P0000 T02060194
KIPT 011013Z AUTO 01003KT 2SM BR OVC002 21/19 A3001 RMK AO2 T02060194
KIPT 010954Z AUTO 00000KT 1/2SM FG VV002 21/19 A3001 RMK AO2 SLP158 T02060194
KIPT 010946Z AUTO 00000KT 1/2SM FG VV002 21/19 A3001 RMK AO2 T02060194
KIPT 010854Z AUTO 00000KT 1/4SM FG VV002 21/19 A3000 RMK AO2 SLP156 T02060194 53001
KIPT 010833Z AUTO 00000KT 1/2SM FG VV002 21/19 A3000 RMK AO2 T02060194
KIPT 010806Z AUTO 00000KT 1 1/2SM BR OVC003 20/19 A3000 RMK AO2 T02000194
KIPT 010801Z AUTO 00000KT 4SM BR OVC003 20/19 A3000 RMK AO2 T02000189
KIPT 010754Z AUTO 00000KT 2 1/2SM BR OVC003 20/19 A3000 RMK AO2 SLP155 T02000194
KIPT 010750Z AUTO 00000KT 1SM BR VV003 20/19 A3000 RMK AO2
KIPT 010722Z AUTO 00000KT 1/4SM FG VV003 20/19 A3000 RMK AO2 T02000189
KIPT 010713Z AUTO 00000KT 1/2SM FG VV003 20/19 A3000 RMK AO2 T02000189
KIPT 010702Z AUTO 00000KT 1 1/2SM BR OVC002 20/19 A3000 RMK AO2 T02000189